KKP3636 YSSY-YBMK
Flight info
| Callsign | KKP3636 |
|---|---|
| Flight time | 2h 16m |
| Altitude | 36000 |
| Route | RIC H76 UPVEN/N0466F350 H66 LAGOB/N0469F360 H252 BN/N0417F200 V308 WELKE |
| Aircraft | B38M/M-SDE1FGHILORVWXY/HB1 |
Departure
| Time | 2026-05-04 02:01 |
|---|---|
| Airport | Sydney Kingsford Smith International Airport (YSSY) |
Arrival
| Time | 2026-05-04 04:17 |
|---|---|
| Airport | Mackay Airport (YBMK) |
| Time | Latitude | Longitude | Altitude | Speed | Heading |
|---|---|---|---|---|---|
| 2026-05-04 01:10 | -33.93627 | 151.18121 | 33 ft | 0 kts | 71° |
| 2026-05-04 01:47 | -33.93632 | 151.18103 | 33 ft | 4 kts | 74° |
| 2026-05-04 01:47 | -33.93637 | 151.18072 | 32 ft | 4 kts | 95° |
| 2026-05-04 01:47 | -33.93630 | 151.18053 | 32 ft | 4 kts | 172° |
| 2026-05-04 01:47 | -33.93634 | 151.18051 | 32 ft | 4 kts | 184° |
| 2026-05-04 01:48 | -33.93660 | 151.18049 | 32 ft | 4 kts | 178° |
| 2026-05-04 01:48 | -33.93670 | 151.18051 | 32 ft | 2 kts | 173° |
| 2026-05-04 01:53 | -33.93683 | 151.18052 | 32 ft | 4 kts | 173° |
| 2026-05-04 01:53 | -33.93749 | 151.18068 | 33 ft | 15 kts | 169° |
| 2026-05-04 01:54 | -33.93787 | 151.18056 | 33 ft | 9 kts | 251° |
| 2026-05-04 01:54 | -33.93803 | 151.17953 | 33 ft | 15 kts | 258° |
| 2026-05-04 01:54 | -33.93839 | 151.17815 | 32 ft | 19 kts | 233° |
| 2026-05-04 01:54 | -33.93969 | 151.17798 | 31 ft | 22 kts | 168° |
| 2026-05-04 01:55 | -33.94127 | 151.17839 | 32 ft | 24 kts | 168° |
| 2026-05-04 01:55 | -33.94300 | 151.17882 | 32 ft | 27 kts | 168° |
| 2026-05-04 01:55 | -33.94490 | 151.17894 | 32 ft | 29 kts | 192° |
| 2026-05-04 01:55 | -33.94692 | 151.17933 | 34 ft | 30 kts | 164° |
| 2026-05-04 01:56 | -33.94898 | 151.17977 | 32 ft | 32 kts | 164° |
| 2026-05-04 01:56 | -33.95117 | 151.18037 | 33 ft | 25 kts | 168° |
| 2026-05-04 01:56 | -33.95199 | 151.17963 | 33 ft | 17 kts | 256° |
| 2026-05-04 01:56 | -33.95227 | 151.17808 | 32 ft | 21 kts | 258° |
| 2026-05-04 01:57 | -33.95269 | 151.17627 | 31 ft | 24 kts | 236° |
| 2026-05-04 01:57 | -33.95425 | 151.17604 | 32 ft | 26 kts | 171° |
| 2026-05-04 01:57 | -33.95611 | 151.17649 | 32 ft | 29 kts | 168° |
| 2026-05-04 01:57 | -33.95817 | 151.17705 | 32 ft | 32 kts | 168° |
| 2026-05-04 01:58 | -33.96047 | 151.17763 | 33 ft | 35 kts | 168° |
| 2026-05-04 01:58 | -33.96297 | 151.17829 | 32 ft | 37 kts | 167° |
| 2026-05-04 01:58 | -33.96413 | 151.17888 | 32 ft | 16 kts | 130° |
| 2026-05-04 01:58 | -33.96432 | 151.17940 | 32 ft | 1 kts | 84° |
| 2026-05-04 01:59 | -33.96430 | 151.17959 | 32 ft | 4 kts | 82° |
| 2026-05-04 01:59 | -33.96422 | 151.18007 | 32 ft | 8 kts | 76° |
| 2026-05-04 01:59 | -33.96379 | 151.18051 | 32 ft | 10 kts | 355° |
| 2026-05-04 01:59 | -33.96362 | 151.18047 | 32 ft | 1 kts | 349° |
| 2026-05-04 02:00 | -33.96342 | 151.18043 | 32 ft | 5 kts | 348° |
| 2026-05-04 02:00 | -33.96265 | 151.18024 | 31 ft | 27 kts | 348° |
| 2026-05-04 02:00 | -33.95840 | 151.17914 | 31 ft | 98 kts | 347° |
| 2026-05-04 02:00 | -33.94971 | 151.17685 | 40 ft | 153 kts | 346° |
| 2026-05-04 02:01 | -33.93827 | 151.17397 | 332 ft | 180 kts | 347° |
| 2026-05-04 02:01 | -33.92542 | 151.17088 | 1002 ft | 202 kts | 348° |
| 2026-05-04 02:01 | -33.91033 | 151.16671 | 1385 ft | 237 kts | 340° |
| 2026-05-04 02:01 | -33.89558 | 151.15751 | 2447 ft | 235 kts | 321° |
| 2026-05-04 02:02 | -33.88412 | 151.14395 | 3696 ft | 234 kts | 311° |
| 2026-05-04 02:02 | -33.87379 | 151.12749 | 4257 ft | 260 kts | 310° |
| 2026-05-04 02:02 | -33.86127 | 151.11074 | 5011 ft | 268 kts | 315° |
| 2026-05-04 02:02 | -33.84887 | 151.09488 | 6513 ft | 253 kts | 315° |
| 2026-05-04 02:03 | -33.83682 | 151.07950 | 7701 ft | 254 kts | 315° |
| 2026-05-04 02:03 | -33.82444 | 151.06379 | 8611 ft | 263 kts | 315° |
| 2026-05-04 02:03 | -33.81180 | 151.04772 | 9553 ft | 264 kts | 314° |
| 2026-05-04 02:03 | -33.79904 | 151.03154 | 10336 ft | 272 kts | 314° |
| 2026-05-04 02:04 | -33.78554 | 151.01447 | 10743 ft | 291 kts | 314° |
| 2026-05-04 02:04 | -33.77111 | 150.99623 | 11072 ft | 311 kts | 314° |
| 2026-05-04 02:04 | -33.75573 | 150.97679 | 11363 ft | 331 kts | 314° |
| 2026-05-04 02:04 | -33.73971 | 150.95656 | 11728 ft | 345 kts | 314° |
| 2026-05-04 02:05 | -33.72296 | 150.93540 | 12333 ft | 351 kts | 314° |
| 2026-05-04 02:05 | -33.70607 | 150.91406 | 13055 ft | 354 kts | 314° |
| 2026-05-04 02:05 | -33.68896 | 150.89244 | 13715 ft | 359 kts | 314° |
| 2026-05-04 02:05 | -33.67732 | 150.87774 | 14153 ft | 361 kts | 314° |
| 2026-05-04 02:06 | -33.65427 | 150.84865 | 14950 ft | 365 kts | 314° |
| 2026-05-04 02:06 | -33.63671 | 150.82651 | 15556 ft | 368 kts | 314° |
| 2026-05-04 02:06 | -33.61899 | 150.80417 | 16139 ft | 371 kts | 314° |
| 2026-05-04 02:06 | -33.59947 | 150.78394 | 16725 ft | 374 kts | 328° |
| 2026-05-04 02:07 | -33.57546 | 150.77177 | 17328 ft | 378 kts | 342° |
| 2026-05-04 02:07 | -33.54998 | 150.76332 | 17852 ft | 382 kts | 342° |
| 2026-05-04 02:07 | -33.52414 | 150.75509 | 18394 ft | 385 kts | 343° |
| 2026-05-04 02:07 | -33.49800 | 150.74700 | 18853 ft | 389 kts | 343° |
| 2026-05-04 02:08 | -33.47171 | 150.73901 | 19348 ft | 391 kts | 343° |
| 2026-05-04 02:08 | -33.45422 | 150.73375 | 19671 ft | 393 kts | 343° |
| 2026-05-04 02:08 | -33.41858 | 150.72309 | 20313 ft | 396 kts | 343° |
| 2026-05-04 02:08 | -33.39171 | 150.71508 | 20775 ft | 399 kts | 343° |
| 2026-05-04 02:09 | -33.36468 | 150.70702 | 21210 ft | 401 kts | 343° |
| 2026-05-04 02:09 | -33.33758 | 150.69895 | 21674 ft | 403 kts | 343° |
| 2026-05-04 02:09 | -33.31031 | 150.69083 | 22068 ft | 406 kts | 342° |
| 2026-05-04 02:09 | -33.28317 | 150.68276 | 22530 ft | 408 kts | 342° |
| 2026-05-04 02:10 | -33.25552 | 150.67455 | 23061 ft | 410 kts | 343° |
| 2026-05-04 02:10 | -33.22775 | 150.66630 | 23741 ft | 412 kts | 342° |
| 2026-05-04 02:10 | -33.19966 | 150.65796 | 24189 ft | 418 kts | 342° |
| 2026-05-04 02:10 | -33.17139 | 150.64957 | 24862 ft | 420 kts | 342° |
| 2026-05-04 02:11 | -33.14287 | 150.64112 | 25531 ft | 424 kts | 341° |
| 2026-05-04 02:11 | -33.12383 | 150.63548 | 25972 ft | 426 kts | 342° |
| 2026-05-04 02:11 | -33.08519 | 150.62404 | 26638 ft | 427 kts | 341° |
| 2026-05-04 02:11 | -33.05645 | 150.61554 | 27175 ft | 424 kts | 341° |
| 2026-05-04 02:12 | -33.03744 | 150.60991 | 27415 ft | 425 kts | 341° |
| 2026-05-04 02:12 | -32.99897 | 150.59854 | 27881 ft | 427 kts | 341° |
| 2026-05-04 02:12 | -32.97017 | 150.59004 | 28284 ft | 426 kts | 341° |
| 2026-05-04 02:12 | -32.94146 | 150.58158 | 28788 ft | 423 kts | 340° |
| 2026-05-04 02:13 | -32.92264 | 150.57603 | 29146 ft | 421 kts | 340° |
| 2026-05-04 02:13 | -32.88520 | 150.56499 | 29880 ft | 415 kts | 340° |
| 2026-05-04 02:13 | -32.85725 | 150.55676 | 30395 ft | 411 kts | 339° |
| 2026-05-04 02:13 | -32.82954 | 150.54861 | 30835 ft | 408 kts | 339° |
| 2026-05-04 02:14 | -32.80208 | 150.54052 | 31270 ft | 406 kts | 339° |
| 2026-05-04 02:14 | -32.78392 | 150.53518 | 31508 ft | 405 kts | 338° |
| 2026-05-04 02:14 | -32.75658 | 150.52716 | 31864 ft | 403 kts | 338° |
| 2026-05-04 02:14 | -32.72940 | 150.51918 | 32272 ft | 402 kts | 338° |
| 2026-05-04 02:15 | -32.70232 | 150.51123 | 32627 ft | 401 kts | 337° |
| 2026-05-04 02:15 | -32.67530 | 150.50332 | 32980 ft | 399 kts | 337° |
| 2026-05-04 02:15 | -32.64840 | 150.49544 | 33345 ft | 398 kts | 336° |
| 2026-05-04 02:15 | -32.62162 | 150.48759 | 33742 ft | 395 kts | 336° |
| 2026-05-04 02:16 | -32.59493 | 150.47978 | 34045 ft | 395 kts | 336° |
| 2026-05-04 02:16 | -32.56822 | 150.47197 | 34330 ft | 394 kts | 336° |
| 2026-05-04 02:16 | -32.54164 | 150.46420 | 34608 ft | 393 kts | 336° |
| 2026-05-04 02:16 | -32.51511 | 150.45645 | 34872 ft | 392 kts | 336° |
| 2026-05-04 02:17 | -32.48895 | 150.44882 | 35073 ft | 392 kts | 335° |
| 2026-05-04 02:17 | -32.46250 | 150.44110 | 35348 ft | 391 kts | 335° |
| 2026-05-04 02:17 | -32.43612 | 150.43341 | 35525 ft | 391 kts | 335° |
| 2026-05-04 02:17 | -32.40965 | 150.42570 | 35732 ft | 391 kts | 335° |
| 2026-05-04 02:18 | -32.38327 | 150.41802 | 35956 ft | 390 kts | 335° |
| 2026-05-04 02:18 | -32.35686 | 150.41033 | 36050 ft | 390 kts | 335° |
| 2026-05-04 02:18 | -32.30443 | 150.39509 | 36047 ft | 387 kts | 335° |
| 2026-05-04 02:19 | -32.25206 | 150.37988 | 36059 ft | 388 kts | 335° |
| 2026-05-04 02:19 | -32.19969 | 150.36469 | 36051 ft | 387 kts | 335° |
| 2026-05-04 02:20 | -32.14731 | 150.34951 | 36059 ft | 388 kts | 335° |
| 2026-05-04 02:20 | -32.09490 | 150.33434 | 36058 ft | 388 kts | 335° |
| 2026-05-04 02:21 | -32.04233 | 150.31915 | 36064 ft | 388 kts | 335° |
| 2026-05-04 02:21 | -31.98991 | 150.30401 | 36080 ft | 387 kts | 335° |
| 2026-05-04 02:22 | -31.93793 | 150.28902 | 36075 ft | 388 kts | 335° |
| 2026-05-04 02:22 | -31.88537 | 150.27389 | 36066 ft | 389 kts | 335° |
| 2026-05-04 02:23 | -31.83289 | 150.25879 | 36044 ft | 388 kts | 335° |
| 2026-05-04 02:23 | -31.80572 | 150.25422 | 36034 ft | 407 kts | 348° |
| 2026-05-04 02:23 | -31.77684 | 150.25879 | 36063 ft | 433 kts | 3° |
| 2026-05-04 02:24 | -31.74818 | 150.27291 | 36076 ft | 463 kts | 18° |
| 2026-05-04 02:24 | -31.72120 | 150.29494 | 36084 ft | 474 kts | 21° |
| 2026-05-04 02:24 | -31.66699 | 150.33922 | 36071 ft | 475 kts | 21° |
| 2026-05-04 02:25 | -31.61277 | 150.38380 | 36067 ft | 476 kts | 22° |
| 2026-05-04 02:25 | -31.55845 | 150.42845 | 36068 ft | 477 kts | 22° |
| 2026-05-04 02:26 | -31.50413 | 150.47303 | 36072 ft | 477 kts | 22° |
| 2026-05-04 02:26 | -31.44971 | 150.51764 | 36078 ft | 478 kts | 22° |
| 2026-05-04 02:27 | -31.39521 | 150.56224 | 36071 ft | 478 kts | 22° |
| 2026-05-04 02:27 | -31.34066 | 150.60681 | 36078 ft | 479 kts | 22° |
| 2026-05-04 02:28 | -31.28597 | 150.65145 | 36090 ft | 480 kts | 22° |
| 2026-05-04 02:28 | -31.23125 | 150.69604 | 36104 ft | 480 kts | 22° |
| 2026-05-04 02:29 | -31.17672 | 150.74041 | 36116 ft | 481 kts | 22° |
| 2026-05-04 02:29 | -31.12174 | 150.78510 | 36124 ft | 481 kts | 22° |
| 2026-05-04 02:30 | -31.06696 | 150.83020 | 36120 ft | 489 kts | 27° |
| 2026-05-04 02:30 | -31.01538 | 150.88319 | 36133 ft | 495 kts | 30° |
| 2026-05-04 02:31 | -30.96402 | 150.93663 | 36115 ft | 495 kts | 30° |
| 2026-05-04 02:31 | -30.91260 | 150.99010 | 36096 ft | 495 kts | 30° |
| 2026-05-04 02:32 | -30.86127 | 151.04339 | 36098 ft | 495 kts | 30° |
| 2026-05-04 02:32 | -30.80983 | 151.09673 | 36085 ft | 494 kts | 30° |
| 2026-05-04 02:33 | -30.75846 | 151.14991 | 36076 ft | 495 kts | 30° |
| 2026-05-04 02:33 | -30.70734 | 151.20276 | 36081 ft | 494 kts | 30° |
| 2026-05-04 02:34 | -30.65591 | 151.25584 | 36077 ft | 494 kts | 30° |
| 2026-05-04 02:34 | -30.60447 | 151.30886 | 36084 ft | 494 kts | 30° |
| 2026-05-04 02:35 | -30.55300 | 151.36183 | 36096 ft | 494 kts | 30° |
| 2026-05-04 02:35 | -30.50150 | 151.41476 | 36089 ft | 494 kts | 30° |
| 2026-05-04 02:36 | -30.45001 | 151.46759 | 36096 ft | 494 kts | 31° |
| 2026-05-04 02:36 | -30.39853 | 151.52033 | 36094 ft | 494 kts | 31° |
| 2026-05-04 02:37 | -30.34701 | 151.57306 | 36093 ft | 494 kts | 31° |
| 2026-05-04 02:37 | -30.29570 | 151.62546 | 36104 ft | 494 kts | 31° |
| 2026-05-04 02:38 | -30.24415 | 151.67805 | 36101 ft | 494 kts | 31° |
| 2026-05-04 02:38 | -30.19241 | 151.73075 | 36112 ft | 495 kts | 31° |
| 2026-05-04 02:39 | -30.14073 | 151.78331 | 36111 ft | 495 kts | 31° |
| 2026-05-04 02:39 | -30.08906 | 151.83578 | 36110 ft | 495 kts | 31° |
| 2026-05-04 02:40 | -30.03717 | 151.88841 | 36111 ft | 496 kts | 31° |
| 2026-05-04 02:40 | -29.98534 | 151.94090 | 36120 ft | 496 kts | 31° |
| 2026-05-04 02:41 | -29.93372 | 151.99310 | 36113 ft | 496 kts | 31° |
| 2026-05-04 02:41 | -29.88175 | 152.04558 | 36117 ft | 496 kts | 31° |
| 2026-05-04 02:42 | -29.82979 | 152.09798 | 36110 ft | 497 kts | 31° |
| 2026-05-04 02:42 | -29.77773 | 152.15038 | 36109 ft | 497 kts | 31° |
| 2026-05-04 02:43 | -29.72553 | 152.20287 | 36109 ft | 498 kts | 31° |
| 2026-05-04 02:43 | -29.67345 | 152.25514 | 36104 ft | 498 kts | 31° |
| 2026-05-04 02:44 | -29.62116 | 152.30757 | 36098 ft | 498 kts | 31° |
| 2026-05-04 02:44 | -29.56894 | 152.35984 | 36112 ft | 498 kts | 31° |
| 2026-05-04 02:45 | -29.51696 | 152.41181 | 36102 ft | 497 kts | 31° |
| 2026-05-04 02:45 | -29.46468 | 152.46399 | 36105 ft | 498 kts | 31° |
| 2026-05-04 02:46 | -29.41240 | 152.51610 | 36110 ft | 498 kts | 31° |
| 2026-05-04 02:46 | -29.36004 | 152.56822 | 36102 ft | 498 kts | 31° |
| 2026-05-04 02:47 | -29.30777 | 152.62017 | 36106 ft | 498 kts | 31° |
| 2026-05-04 02:47 | -29.26422 | 152.66341 | 36106 ft | 498 kts | 31° |
| 2026-05-04 02:48 | -29.20297 | 152.72413 | 36100 ft | 498 kts | 31° |
| 2026-05-04 02:48 | -29.15060 | 152.77596 | 36103 ft | 498 kts | 31° |
| 2026-05-04 02:49 | -29.09816 | 152.82779 | 36102 ft | 498 kts | 31° |
| 2026-05-04 02:49 | -29.04569 | 152.87958 | 36104 ft | 499 kts | 31° |
| 2026-05-04 02:50 | -28.99411 | 152.93042 | 36101 ft | 498 kts | 31° |
| 2026-05-04 02:50 | -28.94157 | 152.98214 | 36101 ft | 498 kts | 31° |
| 2026-05-04 02:51 | -28.88842 | 153.03253 | 36092 ft | 487 kts | 21° |
| 2026-05-04 02:51 | -28.85886 | 153.04869 | 36104 ft | 459 kts | 5° |
| 2026-05-04 02:51 | -28.82819 | 153.05824 | 36094 ft | 457 kts | 4° |
| 2026-05-04 02:52 | -28.76653 | 153.07561 | 36114 ft | 456 kts | 2° |
| 2026-05-04 02:52 | -28.71520 | 153.08917 | 36105 ft | 455 kts | 2° |
| 2026-05-04 02:53 | -28.64348 | 153.10773 | 36100 ft | 454 kts | 2° |
| 2026-05-04 02:53 | -28.58173 | 153.12366 | 36108 ft | 455 kts | 2° |
| 2026-05-04 02:54 | -28.52003 | 153.13955 | 36108 ft | 455 kts | 2° |
| 2026-05-04 02:54 | -28.45819 | 153.15546 | 36098 ft | 455 kts | 2° |
| 2026-05-04 02:55 | -28.37591 | 153.17659 | 36104 ft | 455 kts | 2° |
| 2026-05-04 02:56 | -28.30355 | 153.19515 | 36099 ft | 455 kts | 2° |
| 2026-05-04 02:56 | -28.24169 | 153.21101 | 36092 ft | 457 kts | 2° |
| 2026-05-04 02:57 | -28.18001 | 153.22679 | 36116 ft | 458 kts | 2° |
| 2026-05-04 02:57 | -28.11787 | 153.24271 | 36082 ft | 457 kts | 2° |
| 2026-05-04 02:58 | -28.05581 | 153.25859 | 36103 ft | 458 kts | 2° |
| 2026-05-04 02:58 | -27.99374 | 153.27445 | 36098 ft | 457 kts | 2° |
| 2026-05-04 02:59 | -27.93153 | 153.29033 | 36091 ft | 458 kts | 2° |
| 2026-05-04 02:59 | -27.87981 | 153.30371 | 36102 ft | 459 kts | 2° |
| 2026-05-04 03:00 | -27.80738 | 153.32242 | 36094 ft | 459 kts | 2° |
| 2026-05-04 03:00 | -27.77591 | 153.32660 | 36087 ft | 438 kts | 347° |
| 2026-05-04 03:00 | -27.74709 | 153.32154 | 36090 ft | 416 kts | 333° |
| 2026-05-04 03:01 | -27.70169 | 153.30285 | 36087 ft | 414 kts | 329° |
| 2026-05-04 03:01 | -27.64973 | 153.27861 | 36096 ft | 412 kts | 328° |
| 2026-05-04 03:02 | -27.58855 | 153.24879 | 36092 ft | 411 kts | 328° |
| 2026-05-04 03:02 | -27.53604 | 153.22291 | 36096 ft | 412 kts | 328° |
| 2026-05-04 03:03 | -27.49240 | 153.20140 | 36092 ft | 412 kts | 328° |
| 2026-05-04 03:03 | -27.43559 | 153.17341 | 36098 ft | 412 kts | 328° |
| 2026-05-04 03:04 | -27.39190 | 153.15191 | 36104 ft | 412 kts | 328° |
| 2026-05-04 03:04 | -27.36466 | 153.14103 | 36083 ft | 424 kts | 340° |
| 2026-05-04 03:04 | -27.33503 | 153.13667 | 36106 ft | 431 kts | 343° |
| 2026-05-04 03:05 | -27.27519 | 153.12879 | 36103 ft | 434 kts | 344° |
| 2026-05-04 03:05 | -27.21510 | 153.12159 | 36097 ft | 434 kts | 344° |
| 2026-05-04 03:06 | -27.15530 | 153.11461 | 36090 ft | 435 kts | 344° |
| 2026-05-04 03:06 | -27.09511 | 153.10759 | 36088 ft | 435 kts | 344° |
| 2026-05-04 03:07 | -27.03483 | 153.10058 | 36084 ft | 435 kts | 344° |
| 2026-05-04 03:07 | -26.97463 | 153.09357 | 36083 ft | 435 kts | 344° |
| 2026-05-04 03:08 | -26.91432 | 153.08657 | 36082 ft | 435 kts | 344° |
| 2026-05-04 03:08 | -26.85402 | 153.07957 | 36085 ft | 436 kts | 344° |
| 2026-05-04 03:09 | -26.79358 | 153.07257 | 36074 ft | 436 kts | 344° |
| 2026-05-04 03:09 | -26.73322 | 153.06558 | 36071 ft | 436 kts | 344° |
| 2026-05-04 03:09 | -26.70357 | 153.06026 | 36058 ft | 423 kts | 333° |
| 2026-05-04 03:10 | -26.67659 | 153.04873 | 36087 ft | 417 kts | 330° |
| 2026-05-04 03:10 | -26.62231 | 153.02521 | 36072 ft | 418 kts | 330° |
| 2026-05-04 03:11 | -26.56863 | 153.00130 | 36073 ft | 418 kts | 329° |
| 2026-05-04 03:11 | -26.51469 | 152.97712 | 36079 ft | 418 kts | 330° |
| 2026-05-04 03:12 | -26.46062 | 152.95290 | 36075 ft | 418 kts | 329° |
| 2026-05-04 03:12 | -26.40661 | 152.92872 | 36067 ft | 418 kts | 330° |
| 2026-05-04 03:13 | -26.35255 | 152.90455 | 36069 ft | 418 kts | 330° |
| 2026-05-04 03:13 | -26.30014 | 152.87788 | 36047 ft | 403 kts | 316° |
| 2026-05-04 03:14 | -26.25566 | 152.84000 | 36062 ft | 404 kts | 316° |
| 2026-05-04 03:14 | -26.21111 | 152.80171 | 36065 ft | 404 kts | 315° |
| 2026-05-04 03:15 | -26.16710 | 152.76352 | 36066 ft | 404 kts | 315° |
| 2026-05-04 03:15 | -26.12281 | 152.72505 | 36053 ft | 404 kts | 315° |
| 2026-05-04 03:16 | -26.07831 | 152.68644 | 36061 ft | 404 kts | 315° |
| 2026-05-04 03:16 | -26.03429 | 152.64829 | 36051 ft | 404 kts | 315° |
| 2026-05-04 03:17 | -25.99004 | 152.60996 | 36054 ft | 404 kts | 315° |
| 2026-05-04 03:17 | -25.94570 | 152.57160 | 36050 ft | 403 kts | 316° |
| 2026-05-04 03:18 | -25.90129 | 152.53322 | 36052 ft | 404 kts | 316° |
| 2026-05-04 03:18 | -25.85688 | 152.49488 | 36053 ft | 405 kts | 316° |
| 2026-05-04 03:19 | -25.81237 | 152.45648 | 36048 ft | 405 kts | 316° |
| 2026-05-04 03:19 | -25.76790 | 152.41815 | 36050 ft | 405 kts | 316° |
| 2026-05-04 03:20 | -25.72337 | 152.37982 | 36047 ft | 405 kts | 316° |
| 2026-05-04 03:20 | -25.67916 | 152.34180 | 36046 ft | 405 kts | 316° |
| 2026-05-04 03:21 | -25.63459 | 152.30350 | 36048 ft | 405 kts | 316° |
| 2026-05-04 03:21 | -25.59002 | 152.26525 | 36048 ft | 405 kts | 316° |
| 2026-05-04 03:22 | -25.55457 | 152.23484 | 36049 ft | 405 kts | 316° |
| 2026-05-04 03:22 | -25.52317 | 152.20792 | 36047 ft | 406 kts | 316° |
| 2026-05-04 03:23 | -25.47850 | 152.16967 | 36059 ft | 406 kts | 316° |
| 2026-05-04 03:23 | -25.43370 | 152.13134 | 36039 ft | 407 kts | 316° |
| 2026-05-04 03:24 | -25.38894 | 152.09309 | 36046 ft | 407 kts | 316° |
| 2026-05-04 03:24 | -25.34406 | 152.05476 | 36041 ft | 408 kts | 316° |
| 2026-05-04 03:25 | -25.29912 | 152.01643 | 36036 ft | 408 kts | 316° |
| 2026-05-04 03:25 | -25.25420 | 151.97815 | 36040 ft | 408 kts | 316° |
| 2026-05-04 03:26 | -25.20928 | 151.93990 | 36040 ft | 408 kts | 316° |
| 2026-05-04 03:26 | -25.16435 | 151.90167 | 36038 ft | 408 kts | 316° |
| 2026-05-04 03:27 | -25.11906 | 151.86442 | 36039 ft | 409 kts | 317° |
| 2026-05-04 03:27 | -25.07329 | 151.82700 | 36038 ft | 409 kts | 317° |
| 2026-05-04 03:28 | -25.02755 | 151.78961 | 36038 ft | 409 kts | 317° |
| 2026-05-04 03:28 | -24.98169 | 151.75216 | 36039 ft | 410 kts | 317° |
| 2026-05-04 03:29 | -24.93585 | 151.71476 | 36039 ft | 410 kts | 317° |
| 2026-05-04 03:29 | -24.89000 | 151.67738 | 36031 ft | 410 kts | 317° |
| 2026-05-04 03:30 | -24.84419 | 151.64008 | 36044 ft | 410 kts | 317° |
| 2026-05-04 03:30 | -24.79839 | 151.60281 | 36041 ft | 410 kts | 317° |
| 2026-05-04 03:31 | -24.75279 | 151.56574 | 36038 ft | 410 kts | 317° |
| 2026-05-04 03:31 | -24.70687 | 151.52845 | 36031 ft | 410 kts | 318° |
| 2026-05-04 03:32 | -24.66105 | 151.49127 | 36050 ft | 410 kts | 317° |
| 2026-05-04 03:32 | -24.61514 | 151.45406 | 36040 ft | 410 kts | 318° |
| 2026-05-04 03:33 | -24.56914 | 151.41680 | 36026 ft | 410 kts | 317° |
| 2026-05-04 03:33 | -24.52313 | 151.37959 | 36042 ft | 411 kts | 318° |
| 2026-05-04 03:34 | -24.47707 | 151.34235 | 36021 ft | 411 kts | 318° |
| 2026-05-04 03:34 | -24.43109 | 151.30522 | 36035 ft | 411 kts | 318° |
| 2026-05-04 03:35 | -24.38499 | 151.26802 | 36040 ft | 411 kts | 318° |
| 2026-05-04 03:35 | -24.33894 | 151.23091 | 36023 ft | 411 kts | 318° |
| 2026-05-04 03:36 | -24.29282 | 151.19377 | 36036 ft | 411 kts | 318° |
| 2026-05-04 03:36 | -24.24691 | 151.15683 | 36027 ft | 412 kts | 318° |
| 2026-05-04 03:37 | -24.20068 | 151.11967 | 36034 ft | 412 kts | 318° |
| 2026-05-04 03:37 | -24.15444 | 151.08252 | 36034 ft | 412 kts | 318° |
| 2026-05-04 03:38 | -24.10816 | 151.04539 | 36037 ft | 413 kts | 318° |
| 2026-05-04 03:38 | -24.06184 | 151.00828 | 36033 ft | 413 kts | 318° |
| 2026-05-04 03:39 | -24.01529 | 150.97128 | 36028 ft | 413 kts | 319° |
| 2026-05-04 03:39 | -23.96911 | 150.93456 | 36027 ft | 413 kts | 318° |
| 2026-05-04 03:40 | -23.92263 | 150.89765 | 36029 ft | 413 kts | 319° |
| 2026-05-04 03:40 | -23.87605 | 150.86068 | 36027 ft | 413 kts | 319° |
| 2026-05-04 03:41 | -23.82951 | 150.82379 | 36028 ft | 414 kts | 319° |
| 2026-05-04 03:41 | -23.78284 | 150.78686 | 36034 ft | 414 kts | 319° |
| 2026-05-04 03:42 | -23.73616 | 150.74994 | 36029 ft | 414 kts | 319° |
| 2026-05-04 03:42 | -23.68953 | 150.71309 | 36031 ft | 414 kts | 319° |
| 2026-05-04 03:43 | -23.64279 | 150.67618 | 36030 ft | 415 kts | 319° |
| 2026-05-04 03:43 | -23.59599 | 150.63927 | 36027 ft | 415 kts | 319° |
| 2026-05-04 03:44 | -23.54921 | 150.60240 | 36025 ft | 415 kts | 319° |
| 2026-05-04 03:44 | -23.50238 | 150.56553 | 36020 ft | 415 kts | 319° |
| 2026-05-04 03:45 | -23.45583 | 150.52891 | 36017 ft | 415 kts | 319° |
| 2026-05-04 03:45 | -23.40891 | 150.49203 | 36021 ft | 416 kts | 319° |
| 2026-05-04 03:46 | -23.35734 | 150.46280 | 36032 ft | 426 kts | 333° |
| 2026-05-04 03:46 | -23.30144 | 150.44060 | 36020 ft | 428 kts | 334° |
| 2026-05-04 03:47 | -23.24518 | 150.41891 | 36019 ft | 429 kts | 334° |
| 2026-05-04 03:47 | -23.18891 | 150.39741 | 36023 ft | 429 kts | 334° |
| 2026-05-04 03:48 | -23.13262 | 150.37594 | 36025 ft | 429 kts | 334° |
| 2026-05-04 03:48 | -23.07661 | 150.35459 | 36027 ft | 429 kts | 334° |
| 2026-05-04 03:49 | -23.02022 | 150.33312 | 36028 ft | 429 kts | 334° |
| 2026-05-04 03:49 | -22.96382 | 150.31166 | 36027 ft | 430 kts | 334° |
| 2026-05-04 03:50 | -22.90737 | 150.29021 | 36028 ft | 430 kts | 334° |
| 2026-05-04 03:50 | -22.85090 | 150.26876 | 36024 ft | 430 kts | 334° |
| 2026-05-04 03:51 | -22.79434 | 150.24730 | 36025 ft | 431 kts | 334° |
| 2026-05-04 03:51 | -22.74725 | 150.22945 | 36020 ft | 431 kts | 334° |
| 2026-05-04 03:52 | -22.69067 | 150.20801 | 36023 ft | 431 kts | 334° |
| 2026-05-04 03:52 | -22.63402 | 150.18657 | 36021 ft | 431 kts | 334° |
| 2026-05-04 03:53 | -22.57735 | 150.16514 | 36020 ft | 432 kts | 334° |
| 2026-05-04 03:53 | -22.52057 | 150.14366 | 36021 ft | 432 kts | 334° |
| 2026-05-04 03:54 | -22.46383 | 150.12227 | 36018 ft | 432 kts | 334° |
| 2026-05-04 03:54 | -22.40701 | 150.10084 | 36014 ft | 432 kts | 334° |
| 2026-05-04 03:54 | -22.37877 | 150.09020 | 35526 ft | 428 kts | 335° |
| 2026-05-04 03:55 | -22.35057 | 150.07958 | 34765 ft | 431 kts | 335° |
| 2026-05-04 03:55 | -22.32210 | 150.06886 | 34014 ft | 434 kts | 335° |
| 2026-05-04 03:55 | -22.29343 | 150.05806 | 33163 ft | 437 kts | 336° |
| 2026-05-04 03:55 | -22.26466 | 150.04723 | 32391 ft | 438 kts | 336° |
| 2026-05-04 03:56 | -22.23579 | 150.03638 | 31654 ft | 439 kts | 336° |
| 2026-05-04 03:56 | -22.20692 | 150.02552 | 30884 ft | 440 kts | 336° |
| 2026-05-04 03:56 | -22.17792 | 150.01462 | 30093 ft | 443 kts | 336° |
| 2026-05-04 03:56 | -22.14872 | 150.00367 | 29127 ft | 446 kts | 338° |
| 2026-05-04 03:57 | -22.11931 | 149.99281 | 28239 ft | 447 kts | 339° |
| 2026-05-04 03:57 | -22.08988 | 149.98191 | 27387 ft | 447 kts | 339° |
| 2026-05-04 03:57 | -22.06049 | 149.97091 | 26559 ft | 447 kts | 339° |
| 2026-05-04 03:57 | -22.03158 | 149.96007 | 25903 ft | 442 kts | 339° |
| 2026-05-04 03:58 | -21.97640 | 149.93050 | 24355 ft | 443 kts | 317° |
| 2026-05-04 03:58 | -21.95526 | 149.90677 | 23830 ft | 440 kts | 312° |
| 2026-05-04 03:58 | -21.93335 | 149.88391 | 23079 ft | 437 kts | 315° |
| 2026-05-04 03:59 | -21.91093 | 149.86197 | 22358 ft | 434 kts | 316° |
| 2026-05-04 03:59 | -21.88842 | 149.84062 | 21705 ft | 430 kts | 317° |
| 2026-05-04 03:59 | -21.86596 | 149.81961 | 21060 ft | 426 kts | 317° |
| 2026-05-04 03:59 | -21.84358 | 149.79889 | 20433 ft | 423 kts | 318° |
| 2026-05-04 04:00 | -21.82129 | 149.77835 | 19800 ft | 420 kts | 318° |
| 2026-05-04 04:00 | -21.79916 | 149.75800 | 19172 ft | 418 kts | 318° |
| 2026-05-04 04:00 | -21.77706 | 149.73768 | 18543 ft | 416 kts | 319° |
| 2026-05-04 04:00 | -21.75508 | 149.71748 | 17863 ft | 415 kts | 319° |
| 2026-05-04 04:01 | -21.73358 | 149.69773 | 17225 ft | 412 kts | 319° |
| 2026-05-04 04:01 | -21.71147 | 149.67743 | 16591 ft | 409 kts | 319° |
| 2026-05-04 04:01 | -21.69017 | 149.65788 | 15999 ft | 407 kts | 319° |
| 2026-05-04 04:01 | -21.66842 | 149.63793 | 15385 ft | 404 kts | 319° |
| 2026-05-04 04:02 | -21.64739 | 149.61864 | 14801 ft | 403 kts | 319° |
| 2026-05-04 04:02 | -21.62538 | 149.60012 | 14160 ft | 402 kts | 327° |
| 2026-05-04 04:02 | -21.60171 | 149.58384 | 13547 ft | 401 kts | 326° |
| 2026-05-04 04:02 | -21.57848 | 149.56754 | 12950 ft | 398 kts | 326° |
| 2026-05-04 04:03 | -21.55538 | 149.55117 | 12349 ft | 396 kts | 326° |
| 2026-05-04 04:03 | -21.53267 | 149.53498 | 12037 ft | 386 kts | 326° |
| 2026-05-04 04:03 | -21.51057 | 149.51919 | 11814 ft | 376 kts | 326° |
| 2026-05-04 04:03 | -21.48918 | 149.50390 | 11613 ft | 365 kts | 326° |
| 2026-05-04 04:04 | -21.46839 | 149.48903 | 11417 ft | 350 kts | 327° |
| 2026-05-04 04:04 | -21.44870 | 149.47495 | 11275 ft | 329 kts | 327° |
| 2026-05-04 04:04 | -21.43016 | 149.46170 | 11117 ft | 310 kts | 327° |
| 2026-05-04 04:04 | -21.41464 | 149.45061 | 10974 ft | 295 kts | 327° |
| 2026-05-04 04:05 | -21.39801 | 149.43874 | 10855 ft | 281 kts | 327° |
| 2026-05-04 04:05 | -21.38196 | 149.42728 | 10697 ft | 273 kts | 327° |
| 2026-05-04 04:05 | -21.36638 | 149.41616 | 10562 ft | 266 kts | 327° |
| 2026-05-04 04:05 | -21.35085 | 149.40508 | 10415 ft | 273 kts | 327° |
| 2026-05-04 04:06 | -21.33483 | 149.39365 | 10286 ft | 279 kts | 327° |
| 2026-05-04 04:06 | -21.31857 | 149.38206 | 10153 ft | 283 kts | 327° |
| 2026-05-04 04:06 | -21.30170 | 149.37117 | 9902 ft | 284 kts | 338° |
| 2026-05-04 04:06 | -21.28316 | 149.36395 | 9533 ft | 283 kts | 342° |
| 2026-05-04 04:07 | -21.26460 | 149.35693 | 9219 ft | 281 kts | 341° |
| 2026-05-04 04:07 | -21.24622 | 149.34993 | 8921 ft | 279 kts | 341° |
| 2026-05-04 04:07 | -21.22798 | 149.34295 | 8613 ft | 277 kts | 342° |
| 2026-05-04 04:07 | -21.20985 | 149.33600 | 8329 ft | 276 kts | 342° |
| 2026-05-04 04:08 | -21.19182 | 149.32908 | 8041 ft | 274 kts | 341° |
| 2026-05-04 04:08 | -21.17412 | 149.32229 | 7752 ft | 273 kts | 341° |
| 2026-05-04 04:08 | -21.15625 | 149.31543 | 7458 ft | 272 kts | 342° |
| 2026-05-04 04:08 | -21.13889 | 149.30877 | 7179 ft | 274 kts | 341° |
| 2026-05-04 04:09 | -21.12034 | 149.30161 | 6867 ft | 279 kts | 340° |
| 2026-05-04 04:09 | -21.10393 | 149.29045 | 6520 ft | 283 kts | 315° |
| 2026-05-04 04:09 | -21.09031 | 149.27527 | 6212 ft | 282 kts | 314° |
| 2026-05-04 04:09 | -21.07677 | 149.26006 | 5897 ft | 282 kts | 313° |
| 2026-05-04 04:10 | -21.06334 | 149.24487 | 5584 ft | 281 kts | 314° |
| 2026-05-04 04:10 | -21.04997 | 149.22967 | 5342 ft | 278 kts | 313° |
| 2026-05-04 04:10 | -21.03695 | 149.21481 | 5205 ft | 270 kts | 314° |
| 2026-05-04 04:10 | -21.02426 | 149.20038 | 5061 ft | 262 kts | 313° |
| 2026-05-04 04:11 | -21.01195 | 149.18636 | 4920 ft | 255 kts | 314° |
| 2026-05-04 04:11 | -20.99997 | 149.17272 | 4791 ft | 247 kts | 314° |
| 2026-05-04 04:11 | -20.99033 | 149.15847 | 4752 ft | 229 kts | 291° |
| 2026-05-04 04:11 | -20.98800 | 149.14220 | 4488 ft | 215 kts | 261° |
| 2026-05-04 04:12 | -20.99217 | 149.12801 | 4183 ft | 193 kts | 239° |
| 2026-05-04 04:12 | -20.99840 | 149.11584 | 3901 ft | 184 kts | 236° |
| 2026-05-04 04:12 | -21.00484 | 149.10395 | 3671 ft | 184 kts | 235° |
| 2026-05-04 04:12 | -21.01332 | 149.09417 | 3353 ft | 176 kts | 205° |
| 2026-05-04 04:13 | -21.02459 | 149.09099 | 3072 ft | 160 kts | 173° |
| 2026-05-04 04:13 | -21.03481 | 149.09323 | 2906 ft | 144 kts | 156° |
| 2026-05-04 04:13 | -21.04397 | 149.09786 | 2746 ft | 147 kts | 149° |
| 2026-05-04 04:13 | -21.05275 | 149.10330 | 2497 ft | 144 kts | 146° |
| 2026-05-04 04:14 | -21.06119 | 149.10886 | 2337 ft | 143 kts | 146° |
| 2026-05-04 04:14 | -21.06965 | 149.11454 | 2124 ft | 142 kts | 146° |
| 2026-05-04 04:14 | -21.07800 | 149.12015 | 1963 ft | 142 kts | 146° |
| 2026-05-04 04:14 | -21.08612 | 149.12559 | 1788 ft | 137 kts | 146° |
| 2026-05-04 04:15 | -21.09428 | 149.13109 | 1601 ft | 137 kts | 146° |
| 2026-05-04 04:15 | -21.10233 | 149.13649 | 1406 ft | 138 kts | 145° |
| 2026-05-04 04:15 | -21.11058 | 149.14207 | 1222 ft | 141 kts | 146° |
| 2026-05-04 04:15 | -21.11878 | 149.14758 | 1043 ft | 140 kts | 146° |
| 2026-05-04 04:16 | -21.12705 | 149.15315 | 894 ft | 142 kts | 145° |
| 2026-05-04 04:16 | -21.13539 | 149.15877 | 725 ft | 142 kts | 145° |
| 2026-05-04 04:16 | -21.14359 | 149.16426 | 539 ft | 138 kts | 147° |
| 2026-05-04 04:16 | -21.15185 | 149.16983 | 377 ft | 141 kts | 147° |
| 2026-05-04 04:17 | -21.16015 | 149.17537 | 152 ft | 138 kts | 147° |
| 2026-05-04 04:17 | -21.16791 | 149.18064 | 27 ft | 123 kts | 147° |
| 2026-05-04 04:17 | -21.17442 | 149.18504 | 27 ft | 84 kts | 149° |
| 2026-05-04 04:17 | -21.17741 | 149.18717 | 27 ft | 32 kts | 134° |
| 2026-05-04 04:18 | -21.17793 | 149.18734 | 26 ft | 4 kts | 299° |
| 2026-05-04 04:18 | -21.17753 | 149.18710 | 26 ft | 10 kts | 332° |
| 2026-05-04 04:18 | -21.17670 | 149.18657 | 27 ft | 18 kts | 329° |
| 2026-05-04 04:18 | -21.17547 | 149.18572 | 27 ft | 24 kts | 325° |
| 2026-05-04 04:19 | -21.17535 | 149.18452 | 28 ft | 18 kts | 236° |
| 2026-05-04 04:19 | -21.17592 | 149.18345 | 27 ft | 5 kts | 257° |
| 2026-05-04 04:19 | -21.17590 | 149.18318 | 28 ft | 3 kts | 285° |
| 2026-05-04 04:19 | -21.17582 | 149.18286 | 28 ft | 6 kts | 288° |
| 2026-05-04 04:20 | -21.17572 | 149.18252 | 28 ft | 1 kts | 287° |
| 2026-05-04 04:20 | -21.17571 | 149.18250 | 28 ft | 0 kts | 287° |